sensor_id;sensor_type;location;lat;lon;timestamp;pressure;altitude;pressure_sealevel;temperature;humidity
73334;BME280;61561;43.538;-5.670;2022-08-30T07:08:15;101719.63;;;21.19;76.77
73334;BME280;61561;43.538;-5.670;2022-08-30T07:10:48;101697.00;;;21.03;77.20
73334;BME280;61561;43.538;-5.670;2022-08-30T07:13:34;101736.88;;;21.24;77.29
73334;BME280;61561;43.538;-5.670;2022-08-30T08:02:50;101767.97;;;21.43;77.14
73334;BME280;61561;43.538;-5.670;2022-08-30T08:05:19;101751.84;;;21.37;77.28
73334;BME280;61561;43.538;-5.670;2022-08-30T08:07:46;101771.75;;;21.34;77.58
73334;BME280;61561;43.538;-5.670;2022-08-30T08:10:12;101772.78;;;21.38;77.80
73334;BME280;61561;43.538;-5.670;2022-08-30T08:15:20;101744.25;;;21.29;77.06
73334;BME280;61561;43.538;-5.670;2022-08-30T08:17:49;101797.03;;;21.68;76.84
73334;BME280;61561;43.538;-5.670;2022-08-30T08:20:17;101737.09;;;21.28;76.92
73334;BME280;61561;43.538;-5.670;2022-08-30T08:22:44;101781.78;;;21.43;77.38
73334;BME280;61561;43.538;-5.670;2022-08-30T08:25:13;101754.09;;;21.35;77.60
73334;BME280;61561;43.538;-5.670;2022-08-30T09:03:55;101805.59;;;21.53;76.88
73334;BME280;61561;43.538;-5.670;2022-08-30T09:09:34;101804.31;;;21.64;77.29
73334;BME280;61561;43.538;-5.670;2022-08-30T09:12:07;101837.97;;;21.80;77.54
73334;BME280;61561;43.538;-5.670;2022-08-30T10:34:21;101853.09;;;21.82;76.22
73334;BME280;61561;43.538;-5.670;2022-08-30T10:47:31;101830.41;;;21.85;75.37
73334;BME280;61561;43.538;-5.670;2022-08-30T10:50:06;101857.06;;;22.09;75.42
73334;BME280;61561;43.538;-5.670;2022-08-30T10:52:56;101827.00;;;21.93;75.06
73334;BME280;61561;43.538;-5.670;2022-08-30T10:55:54;101832.50;;;21.93;74.72
73334;BME280;61561;43.538;-5.670;2022-08-30T10:58:22;101810.25;;;21.85;74.39
73334;BME280;61561;43.538;-5.670;2022-08-30T11:01:42;101869.53;;;22.20;74.33
73334;BME280;61561;43.538;-5.670;2022-08-30T13:36:12;101865.84;;;22.92;72.66
73334;BME280;61561;43.538;-5.670;2022-08-30T19:06:25;101817.72;;;21.84;78.01
73334;BME280;61561;43.538;-5.670;2022-08-30T19:09:00;101804.63;;;21.76;78.09
73334;BME280;61561;43.538;-5.670;2022-08-30T19:11:35;101800.97;;;21.81;78.04
73334;BME280;61561;43.538;-5.670;2022-08-30T19:42:28;101876.06;;;21.96;78.27
73334;BME280;61561;43.538;-5.670;2022-08-30T19:44:54;101829.56;;;21.71;77.91
73334;BME280;61561;43.538;-5.670;2022-08-30T19:47:20;101853.09;;;21.82;78.03
73334;BME280;61561;43.538;-5.670;2022-08-30T19:50:04;101875.13;;;22.01;77.86
73334;BME280;61561;43.538;-5.670;2022-08-30T19:52:46;101824.44;;;21.65;77.57
73334;BME280;61561;43.538;-5.670;2022-08-30T19:55:24;101884.25;;;22.02;77.65
73334;BME280;61561;43.538;-5.670;2022-08-30T20:01:47;101851.44;;;21.81;77.43
73334;BME280;61561;43.538;-5.670;2022-08-30T20:05:06;101885.97;;;21.97;78.18
73334;BME280;61561;43.538;-5.670;2022-08-30T20:18:24;101892.63;;;21.96;78.15
73334;BME280;61561;43.538;-5.670;2022-08-30T20:27:48;101885.47;;;21.95;78.11
73334;BME280;61561;43.538;-5.670;2022-08-30T20:30:27;101881.16;;;21.89;78.11
73334;BME280;61561;43.538;-5.670;2022-08-30T20:32:55;101820.13;;;21.59;77.85
73334;BME280;61561;43.538;-5.670;2022-08-30T20:35:31;101876.97;;;21.92;77.65
73334;BME280;61561;43.538;-5.670;2022-08-30T20:37:59;101880.25;;;21.75;78.42
73334;BME280;61561;43.538;-5.670;2022-08-30T20:41:02;101845.31;;;21.71;78.31
73334;BME280;61561;43.538;-5.670;2022-08-30T22:35:55;101871.22;;;21.37;79.92
73334;BME280;61561;43.538;-5.670;2022-08-30T22:38:29;101910.72;;;21.70;79.59
73334;BME280;61561;43.538;-5.670;2022-08-30T22:40:58;101941.34;;;21.69;80.02
73334;BME280;61561;43.538;-5.670;2022-08-30T22:43:30;101931.13;;;21.69;80.59
73334;BME280;61561;43.538;-5.670;2022-08-30T22:45:59;101871.69;;;21.26;80.42
73334;BME280;61561;43.538;-5.670;2022-08-30T22:48:38;101890.00;;;21.54;79.84
73334;BME280;61561;43.538;-5.670;2022-08-30T22:51:32;101897.59;;;21.62;79.90
73334;BME280;61561;43.538;-5.670;2022-08-30T22:54:04;101923.38;;;21.71;79.90
73334;BME280;61561;43.538;-5.670;2022-08-30T23:17:23;101865.25;;;21.49;79.08
73334;BME280;61561;43.538;-5.670;2022-08-30T23:19:54;101917.28;;;21.88;79.07
73334;BME280;61561;43.538;-5.670;2022-08-30T23:22:26;101910.16;;;21.87;79.30
73334;BME280;61561;43.538;-5.670;2022-08-30T23:24:56;101913.19;;;21.85;79.26
73334;BME280;61561;43.538;-5.670;2022-08-30T23:27:45;101912.69;;;21.83;79.05
